Main page
METAR-TAF:

METAR-TAF

Airports :

The Eastern Iowa Airport

Cedar Rapids, Iowa, United States

latitude: 41-53-04N, longitude: 091-42-38W, elevation: 863 ft

Current weather observation

The report was made 17 minutes ago, at 21:52 UTC
Wind 10 mph from the Northwest
Temperature 18°F
Humidity 48%
Pressure 30.72 in. Hg
Visibility: 5 miles
Clear sky
haze

METAR: KCID 202152Z 31009KT 5SM HZ CLR M08/M17 A3072 RMK AO2 SLP421 T10831167

Time: 16:09 (22:09 UTC)

Forecast

The report was made 50 minutes ago, at 21:19 UTC
Forecast valid from 20 at 21 UTC to 21 at 18 UTC
Wind 6 mph from the West/Northwest
Visibility: 6 miles
Clear sky
haze
Temporary
from 20 at 21 UTC to 20 at 23 UTC
Visibility: 5 miles
haze
From 21 at 0400 UTC
Wind 5 mph from the Southwest
Visibility: 6 miles
Clear sky

TAF: KCID 202119Z 2021/2118 30005KT 6SM HZ SKC TEMPO 2021/2023 5SM HZ FM210400 23004KT P6SM SKC

Weather observations and forecasts of more than 4000 airports (METAR and TAF reports).

The available stations are represented by yellow and red dots on the map.

Hover mouse over dot to see the name of the station.

Then click to see weather observations and forecasts.

To change the map : click on the green buttons with a black cross to zoom in, on the green button with a dash to zoom out, or on the green arrows for adjacent maps.


METAR-TAF: